createdAt,value
2018-12-03T02:02:11.145Z,4.1
2018-12-03T02:02:23.517Z,4.1
2018-12-03T02:02:35.909Z,4.1
2018-12-03T02:02:48.283Z,4.1
2018-12-03T02:03:00.686Z,4.1
2018-12-03T02:03:13.074Z,4.1
2018-12-03T02:03:25.481Z,4.1
2018-12-03T02:03:37.862Z,4.1
2018-12-03T02:03:50.277Z,4.1
2018-12-03T02:04:02.637Z,4.1
2018-12-03T02:04:15.018Z,4.1
2018-12-03T02:04:27.393Z,4.1
2018-12-03T02:04:39.751Z,4.1
2018-12-03T02:04:52.125Z,4.1
2018-12-03T02:05:04.499Z,4.1
2018-12-03T02:05:17.008Z,4.1
2018-12-03T02:05:29.386Z,4.1
2018-12-03T02:05:41.755Z,3.79
2018-12-03T02:05:54.136Z,3.79
2018-12-03T02:06:06.496Z,3.79
2018-12-03T02:06:19.078Z,3.79
2018-12-03T02:06:31.605Z,3.79
2018-12-03T02:06:43.988Z,3.79
2018-12-03T02:06:56.376Z,3.79
2018-12-03T02:07:08.795Z,3.79
2018-12-03T02:07:21.168Z,3.79
2018-12-03T02:07:33.545Z,3.79
2018-12-03T02:07:45.975Z,3.79
2018-12-03T02:07:58.368Z,3.79
2018-12-03T02:08:10.748Z,3.79
2018-12-03T02:08:23.157Z,3.79
2018-12-03T02:08:35.521Z,3.79
2018-12-03T02:08:47.897Z,3.79
2018-12-03T02:09:00.299Z,3.79
2018-12-03T02:09:12.705Z,3.79
2018-12-03T02:09:25.147Z,3.79
2018-12-03T02:09:37.529Z,3.79
2018-12-03T02:09:49.915Z,3.79
2018-12-03T02:10:02.293Z,3.79
2018-12-03T02:10:14.662Z,3.79
2018-12-03T02:10:27.044Z,3.79
2018-12-03T02:10:39.428Z,3.79
2018-12-03T02:10:51.815Z,3.79
2018-12-03T02:11:04.217Z,3.79
2018-12-03T02:11:16.641Z,3.79
2018-12-03T02:11:29.035Z,3.79
2018-12-03T02:11:41.424Z,3.79
2018-12-03T02:11:53.819Z,3.79
2018-12-03T02:12:06.252Z,3.79
2018-12-03T02:12:18.623Z,3.79
2018-12-03T02:12:31.014Z,3.79
2018-12-03T02:12:43.379Z,3.79
2018-12-03T02:12:56.147Z,3.79
2018-12-03T02:13:08.523Z,3.79
2018-12-03T02:13:20.898Z,3.79
2018-12-03T02:13:33.271Z,3.79
2018-12-03T02:13:45.661Z,3.79
2018-12-03T02:13:58.083Z,3.79
2018-12-03T02:14:10.485Z,3.79
2018-12-03T02:14:22.878Z,3.79
2018-12-03T02:14:35.248Z,3.79
2018-12-03T02:14:47.719Z,3.79
2018-12-03T02:15:00.096Z,3.79
2018-12-03T02:15:12.499Z,3.79
2018-12-03T02:15:24.890Z,3.79
2018-12-03T02:15:37.263Z,3.76
2018-12-03T02:15:49.624Z,3.76
2018-12-03T02:16:02.000Z,3.76
2018-12-03T02:16:14.373Z,3.76
2018-12-03T02:16:26.737Z,3.76
2018-12-03T02:16:39.123Z,3.76
2018-12-03T02:16:51.481Z,3.76
2018-12-03T02:17:03.866Z,3.76
2018-12-03T02:17:16.224Z,3.76
2018-12-03T02:17:28.655Z,3.76
2018-12-03T02:17:41.013Z,3.76
2018-12-03T02:17:53.614Z,3.76
2018-12-03T02:18:06.007Z,3.76
2018-12-03T02:18:18.415Z,3.76
2018-12-03T02:18:30.786Z,3.76
2018-12-03T02:18:43.162Z,3.76
2018-12-03T02:18:55.558Z,3.76
2018-12-03T02:19:07.932Z,3.76
2018-12-03T02:19:20.311Z,3.76
2018-12-03T02:19:32.700Z,3.76
2018-12-03T02:19:45.055Z,3.76
2018-12-03T02:19:57.411Z,3.76
2018-12-03T02:20:09.781Z,3.76
2018-12-03T02:20:22.144Z,3.76
2018-12-03T02:20:34.510Z,3.76
2018-12-03T02:20:46.889Z,3.76
2018-12-03T02:20:59.279Z,3.76
2018-12-03T02:21:11.644Z,3.76
2018-12-03T02:21:24.084Z,3.76
2018-12-03T02:21:36.456Z,3.76
2018-12-03T02:21:48.852Z,3.76
2018-12-03T02:22:01.233Z,3.76
2018-12-03T02:22:13.601Z,3.76
2018-12-03T02:22:25.972Z,3.76
2018-12-03T02:22:38.329Z,3.76
2018-12-03T02:22:50.762Z,3.76
2018-12-03T02:23:03.129Z,3.76
2018-12-03T02:23:15.488Z,3.76
2018-12-03T02:23:27.873Z,3.76
2018-12-03T02:23:40.249Z,3.76
2018-12-03T02:23:52.661Z,3.76
2018-12-03T02:24:05.048Z,3.76
2018-12-03T02:24:17.445Z,3.76
2018-12-03T02:24:29.875Z,3.76
2018-12-03T02:24:42.241Z,3.76
2018-12-03T02:24:54.603Z,3.76
2018-12-03T02:25:07.302Z,3.76
2018-12-03T02:25:19.740Z,3.76
2018-12-03T02:25:32.112Z,3.78
2018-12-03T02:25:44.480Z,3.78
2018-12-03T02:25:56.974Z,3.78
2018-12-03T02:26:09.435Z,3.78
2018-12-03T02:26:21.809Z,3.78
2018-12-03T02:26:34.187Z,3.78
2018-12-03T02:26:46.576Z,3.78
2018-12-03T02:26:58.965Z,3.78
2018-12-03T02:27:11.382Z,3.78
2018-12-03T02:27:23.754Z,3.78
2018-12-03T02:27:36.131Z,3.78
2018-12-03T02:27:48.570Z,3.78
2018-12-03T02:28:00.947Z,3.78
2018-12-03T02:28:18.409Z,3.78
2018-12-03T02:28:30.797Z,3.78
2018-12-03T02:28:43.181Z,3.78
2018-12-03T02:28:55.556Z,3.78
2018-12-03T02:29:07.934Z,3.78
2018-12-03T02:29:20.340Z,3.78
2018-12-03T02:29:32.705Z,3.78
2018-12-03T02:29:45.081Z,3.78
2018-12-03T02:29:57.611Z,3.78
2018-12-03T02:30:10.099Z,3.78
2018-12-03T02:30:22.685Z,3.78
2018-12-03T02:30:35.131Z,3.78
2018-12-03T02:30:47.767Z,3.78
2018-12-03T02:31:00.171Z,3.78
2018-12-03T02:31:12.571Z,3.78
2018-12-03T02:31:25.000Z,3.78
2018-12-03T02:31:37.392Z,3.78
2018-12-03T02:31:49.817Z,3.78
2018-12-03T02:32:02.339Z,3.78
2018-12-03T02:32:14.732Z,3.78
2018-12-03T02:32:27.100Z,3.78
2018-12-03T02:32:39.514Z,3.78
2018-12-03T02:32:51.990Z,3.78
2018-12-03T02:33:04.455Z,3.78
2018-12-03T02:33:16.850Z,3.78
2018-12-03T02:33:29.278Z,3.78
2018-12-03T02:33:41.668Z,3.78
2018-12-03T02:33:54.130Z,3.78
2018-12-03T02:34:06.547Z,3.78
2018-12-03T02:34:18.922Z,3.78
2018-12-03T02:34:31.320Z,3.78
2018-12-03T02:34:43.757Z,3.78
2018-12-03T02:34:56.294Z,3.78
2018-12-03T02:35:08.706Z,3.78
2018-12-03T02:35:21.148Z,3.78
2018-12-03T02:35:33.690Z,2.99
2018-12-03T02:35:46.058Z,2.99
2018-12-03T02:35:58.469Z,2.99
2018-12-03T02:36:10.905Z,2.99
2018-12-03T02:36:23.318Z,2.99
2018-12-03T02:36:35.760Z,2.99
2018-12-03T02:36:48.175Z,2.99
2018-12-03T02:37:00.574Z,2.99
2018-12-03T02:37:12.998Z,2.99
2018-12-03T02:37:25.407Z,2.99
2018-12-03T02:37:37.846Z,2.99
2018-12-03T02:37:50.238Z,2.99
2018-12-03T02:38:02.685Z,2.99
2018-12-03T02:38:15.077Z,2.99
2018-12-03T02:38:27.477Z,2.99
2018-12-03T02:38:39.879Z,2.99
2018-12-03T02:38:52.277Z,2.99
2018-12-03T02:39:04.825Z,2.99
2018-12-03T02:39:17.415Z,2.99
2018-12-03T02:39:29.809Z,2.99
2018-12-03T02:39:42.242Z,2.99
2018-12-03T02:39:54.637Z,2.99
2018-12-03T02:40:07.042Z,2.99
2018-12-03T02:40:19.424Z,2.99
2018-12-03T02:40:31.821Z,2.99
2018-12-03T02:40:44.189Z,2.99
2018-12-03T02:40:56.580Z,2.99
2018-12-03T02:41:09.245Z,2.99
2018-12-03T02:41:21.647Z,2.99
2018-12-03T02:41:34.083Z,2.99
2018-12-03T02:41:46.456Z,2.99
2018-12-03T02:41:58.860Z,2.99
2018-12-03T02:42:11.258Z,2.99
2018-12-03T02:42:23.634Z,2.99
2018-12-03T02:42:36.034Z,2.99
2018-12-03T02:42:48.471Z,2.99
2018-12-03T02:43:00.860Z,2.99
2018-12-03T02:43:13.233Z,2.99
2018-12-03T02:43:25.633Z,2.99
2018-12-03T02:43:38.010Z,2.99
2018-12-03T02:43:50.543Z,2.99
2018-12-03T02:44:03.007Z,2.99
2018-12-03T02:44:15.421Z,2.99
2018-12-03T02:44:27.850Z,2.99
2018-12-03T02:44:40.259Z,2.99
2018-12-03T02:44:52.660Z,2.99
2018-12-03T02:45:05.093Z,2.99
2018-12-03T02:45:17.519Z,2.99
2018-12-03T02:45:29.932Z,2.99
2018-12-03T02:45:42.364Z,3.57
2018-12-03T02:45:54.794Z,3.57
2018-12-03T02:46:07.222Z,3.57
2018-12-03T02:46:19.709Z,3.57
2018-12-03T02:46:32.094Z,3.57
2018-12-03T02:46:44.799Z,3.57
2018-12-03T02:46:57.254Z,3.57
2018-12-03T02:47:09.628Z,3.57
2018-12-03T02:47:21.998Z,3.57
2018-12-03T02:47:34.410Z,3.57
2018-12-03T02:47:46.800Z,3.57
2018-12-03T02:47:59.207Z,3.57
2018-12-03T02:48:11.609Z,3.57
2018-12-03T02:48:23.995Z,3.57
2018-12-03T02:48:36.434Z,3.57
2018-12-03T02:48:48.808Z,3.57
2018-12-03T02:49:01.250Z,3.57
2018-12-03T02:49:13.638Z,3.57
2018-12-03T02:49:26.032Z,3.57
2018-12-03T02:49:38.425Z,3.57
2018-12-03T02:49:50.808Z,3.57
2018-12-03T02:50:03.360Z,3.57
2018-12-03T02:50:15.764Z,3.57
2018-12-03T02:50:28.319Z,3.57
2018-12-03T02:50:40.710Z,3.57
2018-12-03T02:50:53.091Z,3.57
2018-12-03T02:51:05.479Z,3.57
2018-12-03T02:51:17.848Z,3.57
2018-12-03T02:51:30.269Z,3.57
2018-12-03T02:51:42.647Z,3.57
2018-12-03T02:51:55.283Z,3.57
2018-12-03T02:52:07.699Z,3.57
2018-12-03T02:52:20.097Z,3.57
2018-12-03T02:52:32.483Z,3.57
2018-12-03T02:52:44.868Z,3.57
2018-12-03T02:52:57.242Z,3.57
2018-12-03T02:53:09.647Z,3.57
2018-12-03T02:53:22.056Z,3.57
2018-12-03T02:53:34.465Z,3.57
2018-12-03T02:53:46.856Z,3.57
2018-12-03T02:53:59.364Z,3.57
2018-12-03T02:54:11.749Z,3.57
2018-12-03T02:54:24.152Z,3.57
2018-12-03T02:54:36.611Z,3.57
2018-12-03T02:54:48.989Z,3.57
2018-12-03T02:55:01.416Z,3.57
2018-12-03T02:55:13.848Z,3.57
2018-12-03T02:55:26.210Z,3.57
2018-12-03T02:55:38.621Z,3.65
2018-12-03T02:55:50.998Z,3.65
2018-12-03T02:56:03.404Z,3.65
2018-12-03T02:56:15.790Z,3.65
2018-12-03T02:56:28.270Z,3.65
2018-12-03T02:56:40.649Z,3.65
2018-12-03T02:56:53.129Z,3.65
2018-12-03T02:57:05.548Z,3.65
2018-12-03T02:57:17.952Z,3.65
2018-12-03T02:57:30.321Z,3.65
2018-12-03T02:57:42.740Z,3.65
2018-12-03T02:57:55.100Z,3.65
2018-12-03T02:58:07.488Z,3.65
2018-12-03T02:58:19.875Z,3.65
2018-12-03T02:58:32.243Z,3.65
2018-12-03T02:58:44.619Z,3.65
2018-12-03T02:58:57.001Z,3.65
2018-12-03T02:59:09.393Z,3.65
2018-12-03T02:59:21.807Z,3.65
2018-12-03T02:59:34.191Z,3.65
2018-12-03T02:59:46.596Z,3.65
2018-12-03T02:59:58.982Z,3.65
2018-12-03T03:00:11.371Z,3.65
2018-12-03T03:00:23.784Z,3.65
2018-12-03T03:00:36.178Z,3.65
2018-12-03T03:00:49.749Z,3.65
2018-12-03T03:01:02.190Z,3.65
2018-12-03T03:01:14.646Z,3.65
2018-12-03T03:01:27.078Z,3.65
2018-12-03T03:01:39.506Z,3.65
2018-12-03T03:01:52.000Z,3.65
2018-12-03T03:02:04.399Z,3.65
2018-12-03T03:02:16.843Z,3.65
2018-12-03T03:02:29.262Z,3.65
2018-12-03T03:02:41.741Z,3.65
2018-12-03T03:02:54.144Z,3.65
2018-12-03T03:03:06.569Z,3.65
2018-12-03T03:03:18.990Z,3.65
2018-12-03T03:03:31.406Z,3.65
2018-12-03T03:03:43.800Z,3.65
2018-12-03T03:03:56.278Z,3.65
2018-12-03T03:04:08.810Z,3.65
2018-12-03T03:04:21.197Z,3.65
2018-12-03T03:04:33.581Z,3.65
2018-12-03T03:04:45.969Z,3.65
2018-12-03T03:04:58.349Z,3.65
2018-12-03T03:05:10.734Z,3.65
2018-12-03T03:05:23.332Z,3.65
2018-12-03T03:05:35.711Z,3.21
2018-12-03T03:05:48.092Z,3.21
2018-12-03T03:06:00.482Z,3.21
2018-12-03T03:06:12.855Z,3.21
2018-12-03T03:06:25.266Z,3.21
2018-12-03T03:06:37.671Z,3.21
2018-12-03T03:06:50.118Z,3.21
2018-12-03T03:07:02.547Z,3.21
2018-12-03T03:07:14.958Z,3.21
2018-12-03T03:07:27.362Z,3.21
2018-12-03T03:07:39.751Z,3.21
2018-12-03T03:07:52.185Z,3.21
2018-12-03T03:08:04.534Z,3.21
2018-12-03T03:08:16.948Z,3.21
2018-12-03T03:08:29.362Z,3.21
2018-12-03T03:08:41.742Z,3.21
2018-12-03T03:08:54.136Z,3.21
2018-12-03T03:09:07.168Z,3.21
2018-12-03T03:09:19.578Z,3.21
2018-12-03T03:09:31.983Z,3.21
2018-12-03T03:09:44.391Z,3.21
2018-12-03T03:09:56.788Z,3.21
2018-12-03T03:10:09.182Z,3.21
2018-12-03T03:10:21.843Z,3.21
2018-12-03T03:10:34.513Z,3.21
2018-12-03T03:10:46.912Z,3.21
2018-12-03T03:10:59.299Z,3.21
2018-12-03T03:11:11.720Z,3.21
2018-12-03T03:11:24.097Z,3.21
2018-12-03T03:11:36.485Z,3.21
2018-12-03T03:11:48.869Z,3.21
2018-12-03T03:12:01.403Z,3.21
2018-12-03T03:12:13.771Z,3.21
2018-12-03T03:12:26.179Z,3.21
2018-12-03T03:12:38.555Z,3.21
2018-12-03T03:12:50.948Z,3.21
2018-12-03T03:13:03.379Z,3.21
2018-12-03T03:13:15.784Z,3.21
2018-12-03T03:13:28.234Z,3.21
2018-12-03T03:13:40.632Z,3.21
2018-12-03T03:13:53.012Z,3.21
2018-12-03T03:14:05.408Z,3.21
2018-12-03T03:14:17.898Z,3.21
2018-12-03T03:14:30.294Z,3.21
2018-12-03T03:14:42.852Z,3.21
2018-12-03T03:14:55.243Z,3.21
2018-12-03T03:15:07.651Z,3.21
2018-12-03T03:15:20.067Z,3.21
2018-12-03T03:15:32.459Z,3.21
2018-12-03T03:15:44.869Z,4.13
2018-12-03T03:15:57.254Z,4.13
2018-12-03T03:16:09.684Z,4.13
2018-12-03T03:16:22.067Z,4.13
2018-12-03T03:16:34.477Z,4.13
2018-12-03T03:16:46.889Z,4.13
2018-12-03T03:16:59.285Z,4.13
2018-12-03T03:17:11.699Z,4.13
2018-12-03T03:17:24.075Z,4.13
2018-12-03T03:17:36.480Z,4.13
2018-12-03T03:17:48.869Z,4.13
2018-12-03T03:18:01.258Z,4.13
2018-12-03T03:18:13.662Z,4.13
2018-12-03T03:18:26.093Z,4.13
2018-12-03T03:18:38.477Z,4.13
2018-12-03T03:18:50.920Z,4.13
2018-12-03T03:19:03.331Z,4.13
2018-12-03T03:19:15.745Z,4.13
2018-12-03T03:19:28.150Z,4.13
2018-12-03T03:19:40.573Z,4.13
2018-12-03T03:19:52.952Z,4.13
2018-12-03T03:20:05.365Z,4.13
2018-12-03T03:20:17.779Z,4.13
2018-12-03T03:20:30.158Z,4.13
2018-12-03T03:20:42.541Z,4.13
2018-12-03T03:20:54.937Z,4.13
2018-12-03T03:21:07.345Z,4.13
2018-12-03T03:21:19.728Z,4.13
2018-12-03T03:21:32.103Z,4.13
2018-12-03T03:21:44.479Z,4.13
2018-12-03T03:21:56.906Z,4.13
2018-12-03T03:22:09.278Z,4.13
2018-12-03T03:22:21.700Z,4.13
2018-12-03T03:22:34.097Z,4.13
2018-12-03T03:22:46.568Z,4.13
2018-12-03T03:22:59.015Z,4.13
2018-12-03T03:23:11.395Z,4.13
2018-12-03T03:23:23.770Z,4.13
2018-12-03T03:23:36.149Z,4.13
2018-12-03T03:23:48.558Z,4.13
2018-12-03T03:24:00.972Z,4.13
2018-12-03T03:24:13.355Z,4.13
2018-12-03T03:24:25.735Z,4.13
2018-12-03T03:24:38.177Z,4.13
2018-12-03T03:24:50.605Z,4.13
2018-12-03T03:25:03.029Z,4.13
2018-12-03T03:25:15.429Z,4.13
2018-12-03T03:25:27.829Z,4.13
2018-12-03T03:25:40.240Z,3.65
2018-12-03T03:25:52.882Z,3.65
2018-12-03T03:26:05.419Z,3.65
2018-12-03T03:26:17.810Z,3.65
2018-12-03T03:26:30.270Z,3.65
2018-12-03T03:26:42.639Z,3.65
2018-12-03T03:26:55.013Z,3.65
2018-12-03T03:27:07.396Z,3.65
2018-12-03T03:27:19.775Z,3.65
2018-12-03T03:27:32.177Z,3.65
2018-12-03T03:27:44.701Z,3.65
2018-12-03T03:27:57.143Z,3.65
2018-12-03T03:28:09.971Z,3.65
2018-12-03T03:28:22.368Z,3.65
2018-12-03T03:28:34.751Z,3.65
2018-12-03T03:28:47.113Z,3.65
2018-12-03T03:28:59.474Z,3.65
2018-12-03T03:29:11.886Z,3.65
2018-12-03T03:29:24.310Z,3.65
2018-12-03T03:29:36.710Z,3.65
2018-12-03T03:29:49.084Z,3.65
2018-12-03T03:30:01.567Z,3.65
2018-12-03T03:30:14.076Z,3.65
2018-12-03T03:30:26.746Z,3.65
2018-12-03T03:30:39.260Z,3.65
2018-12-03T03:30:51.960Z,3.65
2018-12-03T03:31:04.457Z,3.65
2018-12-03T03:31:16.951Z,3.65
2018-12-03T03:31:29.451Z,3.65
2018-12-03T03:31:41.926Z,3.65
2018-12-03T03:31:54.492Z,3.65
2018-12-03T03:32:06.963Z,3.65
2018-12-03T03:32:19.453Z,3.65
2018-12-03T03:32:31.880Z,3.65
2018-12-03T03:32:46.435Z,3.65
2018-12-03T03:32:58.931Z,3.65
2018-12-03T03:33:11.465Z,3.65
2018-12-03T03:33:24.005Z,3.65
2018-12-03T03:33:36.514Z,3.65
2018-12-03T03:33:48.988Z,3.65
2018-12-03T03:34:01.428Z,3.65
2018-12-03T03:34:13.811Z,3.65
2018-12-03T03:34:26.257Z,3.65
2018-12-03T03:34:38.627Z,3.65
2018-12-03T03:34:51.033Z,3.65
2018-12-03T03:35:03.428Z,3.65
2018-12-03T03:35:15.893Z,3.65
2018-12-03T03:35:28.292Z,3.65
2018-12-03T03:35:40.793Z,3.7
2018-12-03T03:35:53.188Z,3.7
2018-12-03T03:36:05.599Z,3.7
2018-12-03T03:36:17.994Z,3.7
2018-12-03T03:36:30.394Z,3.7
2018-12-03T03:36:42.791Z,3.7
2018-12-03T03:36:55.207Z,3.7
2018-12-03T03:37:07.570Z,3.7
2018-12-03T03:37:19.971Z,3.7
2018-12-03T03:37:32.338Z,3.7
2018-12-03T03:37:44.750Z,3.7
2018-12-03T03:37:57.157Z,3.7
2018-12-03T03:38:09.614Z,3.7
2018-12-03T03:38:22.003Z,3.7
2018-12-03T03:38:34.430Z,3.7
2018-12-03T03:38:46.843Z,3.7
2018-12-03T03:38:59.222Z,3.7
2018-12-03T03:39:11.753Z,3.7
2018-12-03T03:39:24.127Z,3.7
2018-12-03T03:39:36.521Z,3.7
2018-12-03T03:39:48.917Z,3.7
2018-12-03T03:40:01.323Z,3.7
2018-12-03T03:40:13.736Z,3.7
2018-12-03T03:40:26.143Z,3.7
2018-12-03T03:40:38.531Z,3.7
2018-12-03T03:40:50.941Z,3.7
2018-12-03T03:41:03.477Z,3.7
2018-12-03T03:41:16.067Z,3.7
2018-12-03T03:41:28.485Z,3.7
2018-12-03T03:41:40.867Z,3.7
2018-12-03T03:41:53.242Z,3.7
2018-12-03T03:42:05.635Z,3.7
2018-12-03T03:42:18.004Z,3.7
2018-12-03T03:42:30.386Z,3.7
2018-12-03T03:42:42.771Z,3.7
2018-12-03T03:42:55.199Z,3.7
2018-12-03T03:43:07.604Z,3.7
2018-12-03T03:43:20.027Z,3.7
2018-12-03T03:43:32.409Z,3.7
2018-12-03T03:43:44.803Z,3.7
2018-12-03T03:43:58.316Z,3.7
2018-12-03T03:44:10.789Z,3.7
2018-12-03T03:44:23.464Z,3.7
2018-12-03T03:44:35.857Z,3.7
2018-12-03T03:44:48.207Z,3.7
2018-12-03T03:45:00.613Z,3.7
2018-12-03T03:45:12.995Z,3.7
2018-12-03T03:45:25.412Z,3.7
2018-12-03T03:45:37.823Z,3.6
2018-12-03T03:45:50.220Z,3.6
2018-12-03T03:46:02.624Z,3.6
2018-12-03T03:46:15.002Z,3.6
2018-12-03T03:46:27.519Z,3.6
2018-12-03T03:46:39.902Z,3.6
2018-12-03T03:46:52.736Z,3.6
2018-12-03T03:47:05.123Z,3.6
2018-12-03T03:47:17.530Z,3.6
2018-12-03T03:47:29.912Z,3.6
2018-12-03T03:47:42.313Z,3.6
2018-12-03T03:47:54.705Z,3.6
2018-12-03T03:48:07.115Z,3.6
2018-12-03T03:48:19.542Z,3.6
2018-12-03T03:48:31.954Z,3.6
2018-12-03T03:48:44.333Z,3.6
2018-12-03T03:48:56.729Z,3.6
2018-12-03T03:49:09.122Z,3.6
2018-12-03T03:49:21.555Z,3.6
2018-12-03T03:49:33.945Z,3.6
2018-12-03T03:49:46.355Z,3.6
2018-12-03T03:49:59.039Z,3.6
2018-12-03T03:50:11.428Z,3.6
2018-12-03T03:50:23.936Z,3.6
2018-12-03T03:50:36.306Z,3.6
2018-12-03T03:50:48.705Z,3.6
2018-12-03T03:51:01.088Z,3.6
2018-12-03T03:51:13.458Z,3.6
2018-12-03T03:51:25.849Z,3.6
2018-12-03T03:51:38.240Z,3.6
2018-12-03T03:51:50.963Z,3.6
2018-12-03T03:52:03.398Z,3.6
2018-12-03T03:52:15.792Z,3.6
2018-12-03T03:52:28.187Z,3.6
2018-12-03T03:52:40.585Z,3.6
2018-12-03T03:52:52.948Z,3.6
2018-12-03T03:53:05.364Z,3.6
2018-12-03T03:53:17.806Z,3.6
2018-12-03T03:53:30.207Z,3.6
2018-12-03T03:53:42.584Z,3.6
2018-12-03T03:53:54.984Z,3.6
2018-12-03T03:54:07.359Z,3.6
2018-12-03T03:54:26.460Z,3.6
2018-12-03T03:54:38.877Z,3.6
2018-12-03T03:54:51.263Z,3.6
2018-12-03T03:55:03.712Z,3.6
2018-12-03T03:55:16.145Z,3.6
2018-12-03T03:55:28.551Z,3.6
2018-12-03T03:55:41.004Z,4.13
2018-12-03T03:55:53.387Z,4.13
2018-12-03T03:56:05.760Z,4.13
2018-12-03T03:56:18.206Z,4.13
2018-12-03T03:56:30.764Z,4.13
2018-12-03T03:56:43.318Z,4.13
2018-12-03T03:56:55.693Z,4.13
2018-12-03T03:57:08.098Z,4.13
2018-12-03T03:57:20.484Z,4.13
2018-12-03T03:57:32.864Z,4.13
2018-12-03T03:57:45.276Z,4.13
2018-12-03T03:57:57.678Z,4.13
2018-12-03T03:58:10.045Z,4.13
2018-12-03T03:58:22.430Z,4.13
2018-12-03T03:58:34.814Z,4.13
2018-12-03T03:58:47.188Z,4.13
2018-12-03T03:58:59.574Z,4.13
2018-12-03T03:59:11.991Z,4.13
2018-12-03T03:59:24.439Z,4.13
2018-12-03T03:59:36.887Z,4.13
2018-12-03T03:59:49.253Z,4.13
2018-12-03T04:00:01.658Z,4.13
2018-12-03T04:00:14.053Z,4.13
2018-12-03T04:00:26.472Z,4.13
2018-12-03T04:00:38.895Z,4.13
2018-12-03T04:00:51.293Z,4.13
2018-12-03T04:01:03.717Z,4.13
2018-12-03T04:01:16.210Z,4.13
2018-12-03T04:01:28.605Z,4.13
2018-12-03T04:01:41.080Z,4.13
2018-12-03T04:01:53.489Z,4.13
2018-12-03T04:02:05.876Z,4.13
2018-12-03T04:02:18.291Z,4.13
2018-12-03T04:02:30.646Z,4.13
2018-12-03T04:02:43.027Z,4.13
2018-12-03T04:02:56.548Z,4.13
2018-12-03T04:03:08.962Z,4.13
2018-12-03T04:03:21.376Z,4.13
2018-12-03T04:03:33.849Z,4.13
2018-12-03T04:03:46.322Z,4.13
2018-12-03T04:03:58.695Z,4.13
2018-12-03T04:04:11.086Z,4.13
2018-12-03T04:04:23.457Z,4.13
2018-12-03T04:04:35.965Z,4.13
2018-12-03T04:04:48.367Z,4.13
2018-12-03T04:05:00.738Z,4.13
2018-12-03T04:05:13.156Z,4.13
2018-12-03T04:05:25.707Z,4.13
2018-12-03T04:05:38.094Z,4.83
2018-12-03T04:05:50.512Z,4.83
2018-12-03T04:06:02.879Z,4.83
2018-12-03T04:06:15.273Z,4.83
2018-12-03T04:06:27.699Z,4.83
2018-12-03T04:06:40.114Z,4.83
2018-12-03T04:06:52.530Z,4.83
2018-12-03T04:07:04.903Z,4.83
2018-12-03T04:07:17.273Z,4.83
2018-12-03T04:07:29.643Z,4.83
2018-12-03T04:07:42.075Z,4.83
2018-12-03T04:07:54.455Z,4.83
2018-12-03T04:08:07.067Z,4.83
2018-12-03T04:08:19.521Z,4.83
2018-12-03T04:08:31.912Z,4.83
2018-12-03T04:08:44.300Z,4.83
2018-12-03T04:08:56.702Z,4.83
2018-12-03T04:09:09.105Z,4.83
2018-12-03T04:09:21.478Z,4.83
2018-12-03T04:09:33.884Z,4.83
2018-12-03T04:09:46.267Z,4.83
2018-12-03T04:09:58.652Z,4.83
2018-12-03T04:10:11.034Z,4.83
2018-12-03T04:10:23.476Z,4.83
2018-12-03T04:10:35.851Z,4.83
2018-12-03T04:10:48.264Z,4.83
2018-12-03T04:11:00.662Z,4.83
2018-12-03T04:11:13.056Z,4.83
2018-12-03T04:11:25.465Z,4.83
2018-12-03T04:11:37.863Z,4.83
2018-12-03T04:11:51.036Z,4.83
2018-12-03T04:12:03.473Z,4.83
2018-12-03T04:12:15.870Z,4.83
2018-12-03T04:12:28.257Z,4.83
2018-12-03T04:12:40.691Z,4.83
2018-12-03T04:12:53.198Z,4.83
2018-12-03T04:13:05.585Z,4.83
2018-12-03T04:13:17.973Z,4.83
2018-12-03T04:13:30.409Z,4.83
2018-12-03T04:13:42.796Z,4.83
2018-12-03T04:13:55.212Z,4.83
2018-12-03T04:14:07.580Z,4.83
2018-12-03T04:14:19.998Z,4.83
2018-12-03T04:14:32.405Z,4.83
2018-12-03T04:14:44.926Z,4.83
2018-12-03T04:14:57.342Z,4.83
2018-12-03T04:15:09.758Z,4.83
2018-12-03T04:15:22.181Z,4.83
2018-12-03T04:15:34.620Z,4.83
2018-12-03T04:15:47.037Z,4.68
2018-12-03T04:15:59.423Z,4.68
2018-12-03T04:16:11.831Z,4.68
2018-12-03T04:16:24.243Z,4.68
2018-12-03T04:16:36.649Z,4.68
2018-12-03T04:16:49.024Z,4.68
2018-12-03T04:17:01.421Z,4.68
2018-12-03T04:17:13.835Z,4.68
2018-12-03T04:17:26.205Z,4.68
2018-12-03T04:17:38.579Z,4.68
2018-12-03T04:17:50.957Z,4.68
2018-12-03T04:18:04.324Z,4.68
2018-12-03T04:18:16.729Z,4.68
2018-12-03T04:18:29.120Z,4.68
2018-12-03T04:18:41.517Z,4.68
2018-12-03T04:18:53.919Z,4.68
2018-12-03T04:19:06.310Z,4.68
2018-12-03T04:19:18.695Z,4.68
2018-12-03T04:19:31.077Z,4.68
2018-12-03T04:19:43.516Z,4.68
2018-12-03T04:19:55.906Z,4.68
2018-12-03T04:20:08.307Z,4.68
2018-12-03T04:20:20.666Z,4.68
2018-12-03T04:20:33.062Z,4.68
2018-12-03T04:20:45.427Z,4.68
2018-12-03T04:20:57.808Z,4.68
2018-12-03T04:21:10.194Z,4.68
2018-12-03T04:21:22.565Z,4.68
2018-12-03T04:21:34.949Z,4.68
2018-12-03T04:21:47.333Z,4.68
2018-12-03T04:21:59.712Z,4.68
2018-12-03T04:22:12.077Z,4.68
2018-12-03T04:22:24.511Z,4.68
2018-12-03T04:22:36.879Z,4.68
2018-12-03T04:22:49.338Z,4.68
2018-12-03T04:23:01.719Z,4.68
2018-12-03T04:23:14.122Z,4.68
2018-12-03T04:23:26.498Z,4.68
2018-12-03T04:23:38.931Z,4.68
2018-12-03T04:23:51.300Z,4.68
2018-12-03T04:24:03.679Z,4.68
2018-12-03T04:24:16.048Z,4.68
2018-12-03T04:24:28.508Z,4.68
2018-12-03T04:24:40.872Z,4.68
2018-12-03T04:24:53.367Z,4.68
2018-12-03T04:25:05.744Z,4.68
2018-12-03T04:25:18.160Z,4.68
2018-12-03T04:25:30.528Z,4.68
2018-12-03T04:25:42.918Z,5.42
2018-12-03T04:25:55.456Z,5.42
2018-12-03T04:26:08.122Z,5.42
2018-12-03T04:26:20.516Z,5.42
2018-12-03T04:26:33.054Z,5.42
2018-12-03T04:26:45.453Z,5.42
2018-12-03T04:26:57.859Z,5.42
2018-12-03T04:27:10.229Z,5.42
2018-12-03T04:27:22.626Z,5.42
2018-12-03T04:27:34.993Z,5.42
2018-12-03T04:27:47.490Z,5.42
2018-12-03T04:27:59.915Z,5.42
2018-12-03T04:28:17.890Z,5.42
2018-12-03T04:28:30.263Z,5.42
2018-12-03T04:28:42.638Z,5.42
2018-12-03T04:28:55.026Z,5.42
2018-12-03T04:29:07.411Z,5.42
2018-12-03T04:29:19.782Z,5.42
2018-12-03T04:29:32.187Z,5.42
2018-12-03T04:29:44.570Z,5.42
2018-12-03T04:29:57.019Z,5.42
2018-12-03T04:30:09.449Z,5.42
2018-12-03T04:30:21.975Z,5.42
2018-12-03T04:30:34.449Z,5.42
2018-12-03T04:30:46.977Z,5.42
2018-12-03T04:30:59.402Z,5.42
2018-12-03T04:31:11.793Z,5.42
2018-12-03T04:31:24.206Z,5.42
2018-12-03T04:31:36.623Z,5.42
2018-12-03T04:31:49.068Z,5.42
2018-12-03T04:32:01.466Z,5.42
2018-12-03T04:32:13.877Z,5.42
2018-12-03T04:32:26.283Z,5.42
2018-12-03T04:32:38.668Z,5.42
2018-12-03T04:32:51.035Z,5.42
2018-12-03T04:33:03.446Z,5.42
2018-12-03T04:33:15.867Z,5.42
2018-12-03T04:33:28.274Z,5.42
2018-12-03T04:33:40.721Z,5.42
2018-12-03T04:33:53.090Z,5.42
2018-12-03T04:34:05.476Z,5.42
2018-12-03T04:34:17.854Z,5.42
2018-12-03T04:34:30.277Z,5.42
2018-12-03T04:34:42.668Z,5.42
2018-12-03T04:34:55.063Z,5.42
2018-12-03T04:35:07.470Z,5.42
2018-12-03T04:35:19.892Z,5.42
2018-12-03T04:35:32.305Z,5.42
2018-12-03T04:35:44.932Z,5.47
2018-12-03T04:35:57.329Z,5.47
2018-12-03T04:36:09.695Z,5.47
2018-12-03T04:36:22.090Z,5.47
2018-12-03T04:36:34.472Z,5.47
2018-12-03T04:36:46.840Z,5.47
2018-12-03T04:36:59.232Z,5.47
2018-12-03T04:37:11.609Z,5.47
2018-12-03T04:37:25.334Z,5.47
2018-12-03T04:37:37.708Z,5.47
2018-12-03T04:37:50.085Z,5.47
2018-12-03T04:38:02.475Z,5.47
2018-12-03T04:38:14.850Z,5.47
2018-12-03T04:38:27.260Z,5.47
2018-12-03T04:38:39.666Z,5.47
2018-12-03T04:38:52.068Z,5.47
2018-12-03T04:39:04.448Z,5.47
2018-12-03T04:39:17.032Z,5.47
2018-12-03T04:39:29.437Z,5.47
2018-12-03T04:39:41.815Z,5.47
2018-12-03T04:39:54.195Z,5.47
2018-12-03T04:40:06.617Z,5.47
2018-12-03T04:40:19.033Z,5.47
2018-12-03T04:40:31.407Z,5.47
2018-12-03T04:40:43.798Z,5.47
2018-12-03T04:40:56.220Z,5.47
2018-12-03T04:41:08.781Z,5.47
2018-12-03T04:41:21.207Z,5.47
2018-12-03T04:41:33.565Z,5.47
2018-12-03T04:41:45.996Z,5.47
2018-12-03T04:41:58.387Z,5.47
2018-12-03T04:42:10.747Z,5.47
2018-12-03T04:42:23.120Z,5.47
2018-12-03T04:42:35.497Z,5.47
2018-12-03T04:42:47.908Z,5.47
2018-12-03T04:43:00.407Z,5.47
2018-12-03T04:43:12.790Z,5.47
2018-12-03T04:43:25.176Z,5.47
2018-12-03T04:43:37.560Z,5.47
2018-12-03T04:43:49.953Z,5.47
2018-12-03T04:44:02.337Z,5.47
2018-12-03T04:44:14.751Z,5.47
2018-12-03T04:44:27.169Z,5.47
2018-12-03T04:44:39.572Z,5.47
2018-12-03T04:44:52.007Z,5.47
2018-12-03T04:45:04.527Z,5.47
2018-12-03T04:45:16.970Z,5.47
2018-12-03T04:45:29.362Z,5.47
2018-12-03T04:45:41.810Z,5.04
2018-12-03T04:45:54.235Z,5.04
2018-12-03T04:46:06.597Z,5.04
2018-12-03T04:46:19.337Z,5.04
2018-12-03T04:46:31.723Z,5.04
2018-12-03T04:46:44.147Z,5.04
2018-12-03T04:46:56.757Z,5.04
2018-12-03T04:47:09.176Z,5.04
2018-12-03T04:47:21.567Z,5.04
2018-12-03T04:47:33.941Z,5.04
2018-12-03T04:47:46.349Z,5.04
2018-12-03T04:47:58.744Z,5.04
2018-12-03T04:48:11.148Z,5.04
2018-12-03T04:48:23.531Z,5.04
2018-12-03T04:48:35.893Z,5.04